Time;durP1;ratioP1;P1;durP2;ratioP2;P2;SDS_P1;SDS_P2;PMS_P1;PMS_P2;Temp;Humidity;BMP_temperature;BMP_pressure;BME280_temperature;BME280_humidity;BME280_pressure;Samples;Min_cycle;Max_cycle;Signal;HPM_P1;HPM_P2
2022/10/21 00:01:06;;;;;;;34.97;23.02;;;12.50;99.90;;;;;;4953846;28;20039;-59
2022/10/21 00:03:32;;;;;;;37.35;22.95;;;12.50;99.90;;;;;;4952366;28;20406;-59
2022/10/21 00:05:57;;;;;;;33.80;21.98;;;12.50;99.90;;;;;;4953557;28;20126;-59
2022/10/21 00:08:23;;;;;;;36.63;22.73;;;12.40;99.90;;;;;;4969024;28;21003;-59
2022/10/21 00:10:58;;;;;;;35.65;21.45;;;12.50;99.90;;;;;;4953206;28;20051;-59
2022/10/21 00:13:25;;;;;;;36.33;22.33;;;12.40;99.90;;;;;;4952518;28;20043;-59
2022/10/21 00:16:11;;;;;;;36.53;22.17;;;12.40;99.90;;;;;;4951435;28;20069;-59
2022/10/21 00:18:38;;;;;;;37.20;22.27;;;12.50;99.90;;;;;;4952034;28;20097;-60
2022/10/21 00:21:12;;;;;;;37.72;22.08;;;12.40;99.90;;;;;;4951898;28;20051;-60
2022/10/21 00:23:38;;;;;;;36.53;22.33;;;12.50;99.90;;;;;;4953131;28;20047;-59
2022/10/21 00:26:05;;;;;;;33.88;22.50;;;12.50;99.90;;;;;;4953482;28;20054;-60
2022/10/21 00:28:31;;;;;;;38.40;22.38;;;12.50;99.90;;;;;;4953102;28;20054;-60
2022/10/21 00:30:57;;;;;;;38.47;21.50;;;12.40;99.90;;;;;;4952365;28;20039;-58
2022/10/21 00:33:24;;;;;;;30.88;21.33;;;12.40;99.90;;;;;;4951963;28;20601;-59
2022/10/21 00:35:56;;;;;;;32.75;21.05;;;12.40;99.90;;;;;;4954342;28;20043;-59
2022/10/21 00:38:22;;;;;;;37.13;22.13;;;12.50;99.90;;;;;;4951669;28;20039;-59
2022/10/21 00:40:47;;;;;;;38.88;23.35;;;12.40;99.90;;;;;;4951314;28;20051;-59
2022/10/21 00:43:13;;;;;;;34.20;21.58;;;12.40;99.90;;;;;;4953783;28;20053;-59
2022/10/21 00:45:39;;;;;;;35.42;22.05;;;12.40;99.90;;;;;;4950832;28;20142;-58
2022/10/21 00:48:14;;;;;;;37.78;21.73;;;12.40;99.90;;;;;;4952056;28;20047;-59
2022/10/21 00:50:53;;;;;;;31.90;21.60;;;12.40;99.90;;;;;;4951735;28;20039;-59
2022/10/21 00:53:20;;;;;;;35.58;21.52;;;12.40;99.90;;;;;;4951798;28;20051;-60
2022/10/21 00:55:54;;;;;;;34.90;21.73;;;12.40;99.90;;;;;;4952262;28;20078;-59
2022/10/21 00:58:23;;;;;;;32.95;22.08;;;12.40;99.90;;;;;;4950667;28;20058;-59
2022/10/21 01:00:50;;;;;;;33.72;21.13;;;12.40;99.90;;;;;;4952278;28;20054;-59
2022/10/21 01:03:16;;;;;;;34.58;22.77;;;12.30;99.90;;;;;;4952691;28;20054;-60
2022/10/21 01:05:43;;;;;;;39.53;21.45;;;12.30;99.90;;;;;;4952133;28;20036;-59
2022/10/21 01:08:09;;;;;;;37.58;21.27;;;12.30;99.90;;;;;;4949615;28;20047;-60
2022/10/21 01:10:36;;;;;;;36.75;22.73;;;12.30;99.90;;;;;;4951885;28;20498;-59
2022/10/21 01:13:14;;;;;;;34.53;21.38;;;12.20;99.90;;;;;;4952035;28;20047;-59
2022/10/21 01:16:05;;;;;;;32.47;21.00;;;12.20;99.90;;;;;;4952707;28;20101;-59
2022/10/21 01:18:53;;;;;;;34.53;22.02;;;12.20;99.90;;;;;;4928747;28;20133;-59
2022/10/21 01:21:47;;;;;;;32.50;21.05;;;12.10;99.90;;;;;;4960531;28;20136;-59
2022/10/21 01:24:34;;;;;;;33.90;21.65;;;12.20;99.90;;;;;;4952875;28;20462;-59
2022/10/21 01:27:18;;;;;;;34.70;21.83;;;12.10;99.90;;;;;;4954558;28;20564;-59
2022/10/21 01:29:56;;;;;;;36.28;22.13;;;12.00;99.90;;;;;;4948759;28;20051;-59
2022/10/21 01:32:22;;;;;;;34.30;22.00;;;12.00;99.90;;;;;;4933674;28;20054;-59
2022/10/21 01:35:15;;;;;;;32.28;21.02;;;12.00;99.90;;;;;;4949235;28;20054;-60
2022/10/21 01:37:56;;;;;;;34.78;22.20;;;12.00;99.90;;;;;;4953491;28;20047;-57
2022/10/21 01:40:46;;;;;;;32.13;21.20;;;11.90;99.90;;;;;;4955969;28;20398;-58
2022/10/21 01:43:33;;;;;;;31.70;20.30;;;11.90;99.90;;;;;;4954785;28;20115;-59
2022/10/21 01:46:05;;;;;;;34.75;21.65;;;11.90;99.90;;;;;;4952563;28;20548;-59
2022/10/21 01:48:39;;;;;;;33.95;21.38;;;11.80;99.90;;;;;;4954285;28;20526;-60
2022/10/21 01:51:06;;;;;;;26.77;20.35;;;11.80;99.90;;;;;;4953471;28;20046;-59
2022/10/21 01:53:39;;;;;;;35.45;21.33;;;11.80;99.90;;;;;;4954334;28;20039;-59
2022/10/21 01:56:07;;;;;;;35.47;22.48;;;11.80;99.90;;;;;;4956082;28;20065;-60
2022/10/21 01:58:36;;;;;;;35.15;21.55;;;11.80;99.90;;;;;;4954828;28;20041;-59
2022/10/21 02:01:05;;;;;;;35.92;22.02;;;11.80;99.90;;;;;;4954074;28;20039;-58
2022/10/21 02:03:36;;;;;;;32.00;20.70;;;11.80;99.90;;;;;;4954198;28;20085;-60
2022/10/21 02:06:02;;;;;;;36.08;21.23;;;11.80;99.90;;;;;;4954813;28;20138;-60
2022/10/21 02:08:28;;;;;;;36.20;22.20;;;11.80;99.90;;;;;;4954299;28;20043;-58
2022/10/21 02:11:00;;;;;;;42.80;22.80;;;11.80;99.90;;;;;;4953597;28;20042;-59
2022/10/21 02:13:31;;;;;;;34.27;21.73;;;11.80;99.90;;;;;;4955397;28;20127;-60
2022/10/21 02:16:00;;;;;;;34.05;23.00;;;11.80;99.90;;;;;;4956141;28;20051;-59
2022/10/21 02:18:26;;;;;;;38.53;21.98;;;11.80;99.90;;;;;;4953084;28;20046;-60
2022/10/21 02:20:57;;;;;;;36.03;21.15;;;11.80;99.90;;;;;;4954386;28;20046;-59
2022/10/21 02:23:42;;;;;;;40.78;23.55;;;11.90;99.90;;;;;;4964066;28;20059;-59
2022/10/21 02:26:09;;;;;;;41.30;23.60;;;11.90;99.90;;;;;;4957300;28;20826;-59
2022/10/21 02:28:35;;;;;;;40.65;22.48;;;11.90;99.90;;;;;;4955726;28;20043;-60
2022/10/21 02:31:00;;;;;;;33.40;22.50;;;11.90;99.90;;;;;;4958014;28;20050;-59
2022/10/21 02:33:49;;;;;;;38.40;22.08;;;11.90;99.90;;;;;;4954944;28;20924;-59
2022/10/21 02:36:41;;;;;;;36.83;22.45;;;12.00;99.90;;;;;;4956724;28;20054;-59
2022/10/21 02:39:14;;;;;;;39.00;22.83;;;12.00;99.90;;;;;;4953380;28;20487;-60
2022/10/21 02:41:42;;;;;;;35.63;22.52;;;12.00;99.90;;;;;;4955875;28;20061;-60
2022/10/21 02:44:09;;;;;;;38.08;22.70;;;12.00;99.90;;;;;;4959887;28;20548;-60
2022/10/21 02:46:56;;;;;;;38.53;22.52;;;12.10;99.90;;;;;;4955724;28;20094;-59
2022/10/21 02:49:22;;;;;;;37.42;23.05;;;12.10;99.90;;;;;;4955631;28;20051;-59
2022/10/21 02:51:47;;;;;;;36.83;22.63;;;12.10;99.90;;;;;;4955160;28;20086;-59
2022/10/21 02:54:13;;;;;;;32.80;21.98;;;12.10;99.90;;;;;;4931837;28;20144;-59
2022/10/21 02:56:39;;;;;;;41.22;23.23;;;12.10;99.90;;;;;;4955553;28;21234;-59
2022/10/21 02:59:05;;;;;;;40.58;22.88;;;12.10;99.90;;;;;;4956455;28;20458;-59
2022/10/21 03:01:30;;;;;;;44.33;23.75;;;12.20;99.90;;;;;;4954066;28;20134;-59
2022/10/21 03:03:56;;;;;;;45.75;24.25;;;12.20;99.90;;;;;;4954198;28;20065;-59
2022/10/21 03:06:23;;;;;;;45.90;24.52;;;12.20;99.90;;;;;;4956274;28;20042;-59
2022/10/21 03:08:48;;;;;;;41.20;24.95;;;12.30;99.90;;;;;;4963211;28;20585;-59
2022/10/21 03:11:14;;;;;;;43.97;24.70;;;12.30;99.90;;;;;;4963277;28;20150;-59
2022/10/21 03:13:40;;;;;;;50.75;25.23;;;12.30;99.90;;;;;;4962317;28;20047;-58
2022/10/21 03:16:06;;;;;;;40.50;23.15;;;12.30;99.90;;;;;;4956882;28;20055;-58
2022/10/21 03:18:32;;;;;;;39.25;22.52;;;12.40;99.90;;;;;;4955680;28;20046;-58
2022/10/21 03:20:57;;;;;;;41.80;23.60;;;12.30;99.90;;;;;;4951840;28;20050;-58
2022/10/21 03:23:23;;;;;;;39.38;23.60;;;12.40;99.90;;;;;;4955431;28;20125;-58
2022/10/21 03:25:49;;;;;;;39.47;23.17;;;12.40;99.90;;;;;;4961811;28;20035;-59
2022/10/21 03:28:15;;;;;;;37.22;22.80;;;12.30;99.90;;;;;;4954757;28;20084;-59
2022/10/21 03:30:41;;;;;;;39.72;24.20;;;12.40;99.90;;;;;;4954745;28;20117;-57
2022/10/21 03:33:06;;;;;;;38.13;23.25;;;12.40;99.90;;;;;;4954459;28;20051;-59
2022/10/21 03:35:32;;;;;;;38.30;22.98;;;12.30;99.90;;;;;;4961715;28;20055;-59
2022/10/21 03:37:58;;;;;;;40.40;24.20;;;12.40;99.90;;;;;;4952661;28;20047;-58
2022/10/21 03:40:28;;;;;;;37.78;22.17;;;12.40;99.90;;;;;;4956292;28;20046;-59
2022/10/21 03:42:55;;;;;;;41.08;24.08;;;12.40;99.90;;;;;;4953884;28;20043;-59
2022/10/21 03:45:21;;;;;;;42.67;23.95;;;12.40;99.90;;;;;;4955514;28;20779;-58
2022/10/21 03:47:47;;;;;;;39.72;23.45;;;12.40;99.90;;;;;;4954572;28;20047;-59
2022/10/21 03:50:13;;;;;;;35.03;22.55;;;12.40;99.90;;;;;;4953968;28;20148;-58
2022/10/21 03:52:38;;;;;;;33.83;22.48;;;12.40;99.90;;;;;;4954050;28;20047;-58
2022/10/21 03:55:05;;;;;;;35.83;22.77;;;12.40;99.90;;;;;;4955353;28;20039;-59
2022/10/21 03:57:30;;;;;;;33.45;21.90;;;12.40;99.90;;;;;;4945063;28;20520;-57
2022/10/21 03:59:56;;;;;;;41.78;23.45;;;12.40;99.90;;;;;;4952976;28;20155;-58
2022/10/21 04:02:22;;;;;;;33.33;22.60;;;12.40;99.90;;;;;;4954089;28;20043;-59
2022/10/21 04:04:48;;;;;;;35.05;23.58;;;12.40;99.90;;;;;;4954975;28;20047;-58
2022/10/21 04:07:13;;;;;;;38.03;22.98;;;12.40;99.90;;;;;;4961183;28;20121;-59
2022/10/21 04:09:39;;;;;;;31.33;21.13;;;12.40;99.90;;;;;;4962238;28;20167;-58
2022/10/21 04:12:05;;;;;;;37.45;22.27;;;12.40;99.90;;;;;;4955059;28;20043;-58
2022/10/21 04:14:31;;;;;;;36.72;23.58;;;12.40;99.90;;;;;;4953060;28;20468;-57
2022/10/21 04:16:56;;;;;;;36.80;22.98;;;12.40;99.90;;;;;;4950966;28;20062;-58
2022/10/21 04:19:22;;;;;;;40.47;23.42;;;12.40;99.90;;;;;;4945092;28;20055;-57
2022/10/21 04:21:48;;;;;;;44.80;24.20;;;12.40;99.90;;;;;;4958094;28;20050;-58
2022/10/21 04:24:14;;;;;;;42.33;24.17;;;12.40;99.90;;;;;;4953557;28;20086;-59
2022/10/21 04:26:43;;;;;;;42.05;23.48;;;12.40;99.90;;;;;;4954866;28;20130;-59
2022/10/21 04:29:09;;;;;;;34.30;22.50;;;12.40;99.90;;;;;;4953355;28;20418;-58
2022/10/21 04:31:35;;;;;;;42.00;23.73;;;12.40;99.90;;;;;;4954417;28;20449;-59
2022/10/21 04:34:01;;;;;;;39.05;22.50;;;12.50;99.90;;;;;;4949947;28;20050;-59
2022/10/21 04:36:27;;;;;;;36.20;22.25;;;12.50;99.90;;;;;;4955512;28;20532;-59
2022/10/21 04:38:53;;;;;;;34.53;22.83;;;12.40;99.90;;;;;;4954798;28;20185;-59
2022/10/21 04:41:18;;;;;;;32.50;20.00;;;12.40;99.90;;;;;;4954792;28;20498;-58
2022/10/21 04:43:44;;;;;;;36.10;22.83;;;12.40;99.90;;;;;;4957512;28;20046;-58
2022/10/21 04:46:13;;;;;;;37.05;23.70;;;12.40;99.90;;;;;;4953299;28;20039;-58
2022/10/21 04:48:39;;;;;;;40.03;23.30;;;12.40;99.90;;;;;;4954882;28;20046;-58
2022/10/21 04:51:05;;;;;;;38.25;23.30;;;12.40;99.90;;;;;;4955354;28;20043;-59
2022/10/21 04:53:31;;;;;;;39.17;23.30;;;12.40;99.90;;;;;;4954633;28;20153;-58
2022/10/21 04:55:57;;;;;;;41.17;23.58;;;12.40;99.90;;;;;;4954855;28;20040;-59
2022/10/21 04:58:23;;;;;;;42.38;24.13;;;12.50;99.90;;;;;;4954522;28;20138;-59
2022/10/21 05:00:49;;;;;;;38.72;23.90;;;12.50;99.90;;;;;;4961700;28;20121;-59
2022/10/21 05:03:16;;;;;;;45.40;25.05;;;12.50;99.90;;;;;;4949267;28;20808;-58
2022/10/21 05:05:41;;;;;;;44.17;24.35;;;12.50;99.90;;;;;;4955396;28;20086;-59
2022/10/21 05:08:07;;;;;;;45.75;24.65;;;12.50;99.90;;;;;;4954100;28;20074;-57
2022/10/21 05:10:33;;;;;;;52.35;25.80;;;12.50;99.90;;;;;;4953681;28;20050;-59
2022/10/21 05:12:59;;;;;;;42.83;25.15;;;12.50;99.90;;;;;;4951755;28;20051;-59
2022/10/21 05:15:25;;;;;;;38.83;24.42;;;12.50;99.90;;;;;;4965987;28;20049;-58
2022/10/21 05:17:52;;;;;;;39.53;24.25;;;12.50;99.90;;;;;;4959660;28;20524;-58
2022/10/21 05:20:18;;;;;;;45.30;26.08;;;12.50;99.90;;;;;;4957817;28;20166;-59
2022/10/21 05:22:45;;;;;;;54.08;27.38;;;12.50;99.90;;;;;;4959451;28;20042;-59
2022/10/21 05:25:10;;;;;;;41.38;24.95;;;12.50;99.90;;;;;;4957554;28;20051;-59
2022/10/21 05:27:36;;;;;;;56.55;27.73;;;12.50;99.90;;;;;;4965048;28;20073;-57
2022/10/21 05:30:03;;;;;;;50.38;26.48;;;12.50;99.90;;;;;;4955662;28;20090;-58
2022/10/21 05:32:29;;;;;;;53.83;27.98;;;12.50;99.90;;;;;;4955830;28;20050;-59
2022/10/21 05:34:55;;;;;;;45.28;25.98;;;12.50;99.90;;;;;;4963335;28;20050;-58
2022/10/21 05:37:21;;;;;;;59.00;28.83;;;12.50;99.90;;;;;;4956725;28;20050;-59
2022/10/21 05:39:46;;;;;;;52.95;28.83;;;12.60;99.90;;;;;;4958495;28;20046;-59
2022/10/21 05:42:12;;;;;;;64.60;30.13;;;12.60;99.90;;;;;;4957642;28;20058;-58
2022/10/21 05:44:38;;;;;;;63.67;30.35;;;12.60;99.90;;;;;;4959779;28;20043;-58
2022/10/21 05:47:04;;;;;;;64.32;31.05;;;12.60;99.90;;;;;;4957203;28;20039;-59
2022/10/21 05:49:29;;;;;;;59.97;30.30;;;12.60;99.90;;;;;;4956365;28;20079;-58
2022/10/21 05:51:55;;;;;;;56.47;29.85;;;12.60;99.90;;;;;;4956902;28;20122;-59
2022/10/21 05:54:21;;;;;;;69.22;31.08;;;12.60;99.90;;;;;;4959405;28;20062;-59
2022/10/21 05:56:47;;;;;;;65.55;32.83;;;12.60;99.90;;;;;;4957734;28;20553;-59
2022/10/21 05:59:13;;;;;;;68.40;32.00;;;12.70;99.90;;;;;;4955102;28;20743;-59
2022/10/21 06:01:39;;;;;;;72.72;32.45;;;12.70;99.90;;;;;;4958918;28;20051;-58
2022/10/21 06:04:06;;;;;;;72.68;32.92;;;12.70;99.90;;;;;;4958085;28;20062;-58
2022/10/21 06:06:31;;;;;;;72.40;32.53;;;12.70;99.90;;;;;;4957954;28;20093;-59
2022/10/21 06:08:57;;;;;;;68.60;32.15;;;12.80;99.90;;;;;;4959141;28;20074;-58
2022/10/21 06:11:23;;;;;;;62.97;31.27;;;12.80;99.90;;;;;;4958946;28;20051;-58
2022/10/21 06:13:49;;;;;;;72.15;31.83;;;12.80;99.90;;;;;;4956386;28;20066;-58
2022/10/21 06:16:15;;;;;;;62.28;31.55;;;12.70;99.90;;;;;;4963895;28;20050;-59
2022/10/21 06:18:41;;;;;;;65.68;32.47;;;12.80;99.90;;;;;;4959190;28;20078;-58
2022/10/21 06:21:08;;;;;;;70.88;33.33;;;12.80;99.90;;;;;;4957184;28;20410;-59
2022/10/21 06:23:34;;;;;;;67.28;33.67;;;12.80;99.90;;;;;;4959461;28;20057;-58
2022/10/21 06:26:11;;;;;;;62.13;31.77;;;12.80;99.90;;;;;;4955919;28;20513;-58
2022/10/21 06:28:38;;;;;;;62.53;30.75;;;12.90;99.90;;;;;;4956624;28;20101;-59
2022/10/21 06:31:06;;;;;;;62.22;32.40;;;12.90;99.90;;;;;;4956151;28;20036;-58
2022/10/21 06:33:32;;;;;;;60.55;31.48;;;12.90;99.90;;;;;;4957883;28;20043;-59
2022/10/21 06:35:58;;;;;;;63.55;31.67;;;12.90;99.90;;;;;;4951167;28;20055;-59
2022/10/21 06:38:27;;;;;;;59.50;31.30;;;12.90;99.90;;;;;;4956438;28;20512;-58
2022/10/21 06:41:00;;;;;;;62.10;31.02;;;12.90;99.90;;;;;;4951254;28;20489;-59
2022/10/21 06:43:26;;;;;;;60.85;30.73;;;12.90;99.90;;;;;;4955671;28;20047;-58
2022/10/21 06:45:52;;;;;;;60.78;31.65;;;13.00;99.90;;;;;;4957092;28;20113;-59
2022/10/21 06:48:17;;;;;;;63.08;30.70;;;13.00;99.90;;;;;;4954587;28;20433;-59
2022/10/21 06:50:43;;;;;;;55.92;29.55;;;13.00;99.90;;;;;;4954844;28;20050;-58
2022/10/21 06:53:09;;;;;;;64.43;30.50;;;13.00;99.90;;;;;;4954413;28;20059;-59
2022/10/21 06:55:35;;;;;;;52.45;28.52;;;13.00;99.90;;;;;;4954115;28;20050;-59
2022/10/21 06:58:00;;;;;;;47.80;27.45;;;13.00;99.90;;;;;;4958722;28;20374;-59
2022/10/21 07:00:26;;;;;;;64.57;30.23;;;13.00;99.90;;;;;;4961385;28;20716;-59
2022/10/21 07:02:52;;;;;;;52.47;27.92;;;13.00;99.90;;;;;;4954257;28;20055;-58
2022/10/21 07:05:18;;;;;;;55.60;28.33;;;13.00;99.90;;;;;;4956258;28;20063;-59
2022/10/21 07:07:44;;;;;;;57.70;29.02;;;13.00;99.90;;;;;;4952377;28;20406;-58
2022/10/21 07:10:09;;;;;;;52.20;28.63;;;13.00;99.90;;;;;;4949668;28;20039;-58
2022/10/21 07:12:35;;;;;;;51.28;27.55;;;13.00;99.90;;;;;;4954690;28;20053;-59
2022/10/21 07:15:01;;;;;;;49.17;29.10;;;13.00;99.90;;;;;;4953630;28;20417;-59
2022/10/21 07:17:30;;;;;;;51.72;27.77;;;13.00;99.90;;;;;;4951828;28;20051;-59
2022/10/21 07:19:55;;;;;;;49.90;26.75;;;13.10;99.90;;;;;;4956228;28;20370;-58
2022/10/21 07:22:21;;;;;;;47.58;26.50;;;13.10;99.90;;;;;;4953898;28;20058;-58
2022/10/21 07:24:47;;;;;;;49.65;27.48;;;13.10;99.90;;;;;;4950895;28;20042;-59
2022/10/21 07:27:13;;;;;;;44.72;26.27;;;13.20;99.90;;;;;;4962850;28;20043;-58
2022/10/21 07:29:38;;;;;;;43.67;26.13;;;13.20;99.90;;;;;;4954407;28;20043;-58
2022/10/21 07:32:04;;;;;;;41.65;24.58;;;13.20;99.90;;;;;;4953579;28;20049;-59
2022/10/21 07:34:30;;;;;;;40.90;25.52;;;13.20;99.90;;;;;;4956581;28;20053;-59
2022/10/21 07:36:56;;;;;;;41.33;24.48;;;13.20;99.90;;;;;;4949156;28;20058;-59
2022/10/21 07:39:25;;;;;;;40.63;24.45;;;13.20;99.90;;;;;;4953161;28;20057;-59
2022/10/21 07:41:56;;;;;;;41.78;24.33;;;13.20;99.90;;;;;;4952373;28;20405;-58
2022/10/21 07:44:23;;;;;;;39.33;23.33;;;13.20;99.90;;;;;;4960997;28;20065;-59
2022/10/21 07:46:51;;;;;;;37.53;23.67;;;13.20;99.90;;;;;;4953248;28;20043;-59
2022/10/21 07:49:17;;;;;;;35.38;23.10;;;13.20;99.90;;;;;;4955275;28;20047;-58
2022/10/21 07:51:44;;;;;;;42.55;23.95;;;13.20;99.90;;;;;;4944636;28;20541;-58
2022/10/21 07:54:10;;;;;;;36.55;21.75;;;13.20;99.90;;;;;;4953791;28;20050;-58
2022/10/21 07:56:43;;;;;;;34.75;21.80;;;13.20;99.90;;;;;;4957735;28;20050;-59
2022/10/21 07:59:09;;;;;;;;;;;13.20;99.90;;;;;;4954420;28;20054;-59
2022/10/21 08:01:35;;;;;;;35.92;22.25;;;13.20;99.90;;;;;;4953794;28;20389;-59
2022/10/21 08:04:02;;;;;;;38.42;22.38;;;13.20;99.90;;;;;;4961421;28;20145;-57
2022/10/21 08:06:28;;;;;;;37.00;22.45;;;13.20;99.90;;;;;;4952670;28;20054;-59
2022/10/21 08:08:56;;;;;;;39.67;22.75;;;13.20;99.90;;;;;;4954560;28;20086;-59
2022/10/21 08:11:30;;;;;;;39.17;23.23;;;13.20;99.90;;;;;;4952572;28;20038;-58
2022/10/21 08:13:57;;;;;;;34.50;21.25;;;13.20;99.90;;;;;;4951972;28;20069;-59
2022/10/21 08:16:24;;;;;;;37.83;23.33;;;13.20;99.90;;;;;;4953918;28;20043;-59
2022/10/21 08:18:50;;;;;;;34.22;22.63;;;13.20;99.90;;;;;;4955291;28;20085;-58
2022/10/21 08:21:15;;;;;;;31.42;21.15;;;13.20;99.90;;;;;;4936189;28;20126;-59
2022/10/21 08:23:41;;;;;;;37.38;21.88;;;13.30;99.90;;;;;;4954079;28;20078;-58
2022/10/21 08:26:11;;;;;;;40.20;23.05;;;13.30;99.90;;;;;;4956660;28;20496;-58
2022/10/21 08:28:36;;;;;;;38.20;22.63;;;13.30;99.90;;;;;;4944623;28;20047;-59
2022/10/21 08:31:09;;;;;;;35.97;21.60;;;13.30;99.90;;;;;;4952497;28;20397;-59
2022/10/21 08:33:36;;;;;;;33.97;21.48;;;13.40;99.90;;;;;;4951631;28;20546;-58
2022/10/21 08:36:19;;;;;;;34.10;22.08;;;13.50;99.90;;;;;;4952446;28;20129;-58
2022/10/21 08:38:45;;;;;;;32.22;21.13;;;13.50;99.90;;;;;;4951978;28;20146;-58
2022/10/21 08:41:23;;;;;;;35.38;22.30;;;13.60;99.90;;;;;;4955222;28;20370;-59
2022/10/21 08:43:51;;;;;;;36.63;21.92;;;13.60;99.90;;;;;;4952099;28;20083;-59
2022/10/21 08:46:21;;;;;;;36.25;21.40;;;13.70;99.90;;;;;;4956578;28;20114;-59
2022/10/21 08:48:55;;;;;;;31.83;21.05;;;13.70;99.90;;;;;;4955658;28;20047;-59
2022/10/21 08:51:30;;;;;;;32.90;20.40;;;13.80;99.90;;;;;;4956234;28;20043;-59
2022/10/21 08:54:02;;;;;;;30.10;20.38;;;13.90;99.90;;;;;;4958315;28;20085;-59
2022/10/21 08:56:30;;;;;;;34.00;20.85;;;13.90;99.90;;;;;;4958805;28;20050;-59
2022/10/21 08:58:56;;;;;;;34.60;21.10;;;14.00;99.90;;;;;;4957205;28;20047;-59
2022/10/21 09:01:35;;;;;;;31.02;20.60;;;14.10;99.90;;;;;;4958764;28;20039;-60
2022/10/21 09:04:17;;;;;;;29.73;20.40;;;14.10;99.90;;;;;;4956745;28;20070;-57
2022/10/21 09:07:18;;;;;;;31.70;20.60;;;14.20;99.90;;;;;;4955595;28;20047;-59
2022/10/21 09:09:54;;;;;;;32.72;20.15;;;14.30;99.90;;;;;;4938415;28;20146;-59
2022/10/21 09:12:54;;;;;;;33.53;19.80;;;14.30;99.90;;;;;;4956196;28;20055;-59
2022/10/21 09:15:45;;;;;;;31.25;19.30;;;14.40;99.90;;;;;;4956643;28;20129;-58
2022/10/21 09:18:29;;;;;;;29.60;20.02;;;14.50;99.90;;;;;;4950444;28;20122;-59
2022/10/21 09:21:05;;;;;;;29.70;18.90;;;14.60;99.90;;;;;;4953403;28;20054;-59
2022/10/21 09:23:47;;;;;;;28.08;18.55;;;14.60;99.90;;;;;;4956394;28;20098;-59
2022/10/21 09:26:38;;;;;;;26.10;17.90;;;14.70;99.90;;;;;;4954192;28;20039;-59
2022/10/21 09:29:13;;;;;;;29.10;18.35;;;14.80;99.90;;;;;;4956974;28;20872;-59
2022/10/21 09:31:39;;;;;;;23.33;17.40;;;14.90;99.90;;;;;;4956654;28;20119;-59
2022/10/21 09:34:15;;;;;;;26.70;17.70;;;15.00;99.90;;;;;;4955893;28;20053;-59
2022/10/21 09:36:46;;;;;;;25.17;17.20;;;15.20;99.90;;;;;;4953196;28;20532;-58
2022/10/21 09:39:17;;;;;;;24.50;17.05;;;15.30;99.90;;;;;;4951232;28;20078;-59
2022/10/21 09:41:48;;;;;;;27.08;17.38;;;15.30;99.90;;;;;;4958556;28;20046;-59
2022/10/21 09:44:17;;;;;;;24.23;16.15;;;15.40;99.90;;;;;;4956735;28;20047;-59
2022/10/21 09:46:48;;;;;;;21.92;15.20;;;15.50;99.90;;;;;;4956189;28;20051;-59
2022/10/21 09:49:35;;;;;;;24.92;16.42;;;15.50;99.90;;;;;;4955613;28;20044;-59
2022/10/21 09:52:04;;;;;;;24.20;14.65;;;15.60;99.90;;;;;;4956816;28;20106;-59
2022/10/21 09:54:38;;;;;;;23.25;14.35;;;15.70;99.90;;;;;;4957678;28;20061;-59
2022/10/21 09:57:30;;;;;;;25.92;14.55;;;15.80;99.90;;;;;;4957303;28;20126;-59
2022/10/21 10:00:01;;;;;;;21.45;13.48;;;16.00;99.90;;;;;;4953972;28;20058;-59
2022/10/21 10:02:39;;;;;;;19.83;13.95;;;16.00;99.90;;;;;;4957336;28;20055;-59
2022/10/21 10:05:39;;;;;;;19.27;12.93;;;16.00;99.90;;;;;;4957193;28;20075;-59
2022/10/21 10:08:35;;;;;;;18.17;13.35;;;16.10;99.90;;;;;;4957680;28;20043;-59
2022/10/21 10:11:09;;;;;;;19.40;11.65;;;16.20;99.90;;;;;;4957921;28;20526;-60
2022/10/21 10:13:47;;;;;;;17.95;12.35;;;16.30;99.90;;;;;;4957249;28;20131;-59
2022/10/21 10:16:21;;;;;;;22.58;12.85;;;16.40;99.90;;;;;;4951593;28;20051;-59
2022/10/21 10:18:49;;;;;;;18.50;12.23;;;16.50;99.90;;;;;;4955461;28;20090;-59
2022/10/21 10:21:18;;;;;;;20.58;12.07;;;16.50;99.90;;;;;;4955376;28;20126;-58
2022/10/21 10:23:53;;;;;;;20.10;11.68;;;16.50;99.90;;;;;;4954373;28;20082;-59
2022/10/21 10:26:35;;;;;;;21.00;12.27;;;16.50;99.90;;;;;;4956568;28;20039;-59
2022/10/21 10:29:25;;;;;;;22.05;11.75;;;16.50;99.90;;;;;;4953571;28;20044;-60
2022/10/21 10:31:55;;;;;;;24.85;12.23;;;16.50;99.90;;;;;;4955238;28;20038;-59
2022/10/21 10:34:27;;;;;;;19.02;11.20;;;16.60;99.90;;;;;;4954958;28;20039;-58
2022/10/21 10:37:19;;;;;;;17.77;10.90;;;16.60;99.90;;;;;;4953649;28;20071;-59
2022/10/21 10:39:48;;;;;;;18.63;11.80;;;16.60;99.90;;;;;;4955397;28;20055;-58
2022/10/21 10:42:19;;;;;;;17.10;11.68;;;16.70;99.90;;;;;;4956516;28;20138;-59
2022/10/21 10:44:46;;;;;;;17.38;11.88;;;16.80;99.90;;;;;;4956331;28;20039;-59
2022/10/21 10:47:30;;;;;;;17.55;11.43;;;16.80;99.90;;;;;;4954239;28;20478;-58
2022/10/21 10:49:56;;;;;;;18.30;11.52;;;16.80;99.90;;;;;;4955014;28;20136;-59
2022/10/21 10:52:23;;;;;;;16.70;11.43;;;16.90;99.90;;;;;;4955291;28;20615;-59
2022/10/21 10:55:26;;;;;;;16.42;11.40;;;16.90;99.90;;;;;;4958738;28;20043;-59
2022/10/21 10:57:55;;;;;;;16.77;11.80;;;16.90;99.90;;;;;;4898520;29;20048;-59
2022/10/21 11:00:22;;;;;;;19.33;12.35;;;16.90;99.90;;;;;;4944971;28;20055;-59
2022/10/21 11:03:02;;;;;;;16.58;11.65;;;16.80;99.90;;;;;;4954680;28;20169;-59
2022/10/21 11:05:36;;;;;;;21.92;11.82;;;16.80;99.90;;;;;;4952138;28;20086;-60
2022/10/21 11:08:20;;;;;;;16.35;11.40;;;16.80;99.90;;;;;;4954038;28;20550;-60
2022/10/21 11:10:52;;;;;;;19.92;12.05;;;16.80;99.90;;;;;;4954073;28;20047;-59
2022/10/21 11:13:20;;;;;;;17.23;10.75;;;16.80;99.90;;;;;;4956614;28;20090;-59
2022/10/21 11:16:23;;;;;;;15.18;9.23;;;16.90;99.90;;;;;;4956185;28;20055;-60
2022/10/21 11:19:10;;;;;;;14.18;9.38;;;16.90;99.90;;;;;;4954883;28;20097;-59
2022/10/21 11:21:45;;;;;;;17.50;9.88;;;17.00;99.90;;;;;;4955811;28;20110;-59
2022/10/21 11:24:44;;;;;;;14.18;9.10;;;17.00;99.90;;;;;;4954904;28;20043;-60
2022/10/21 11:27:30;;;;;;;16.08;9.57;;;17.00;99.90;;;;;;4953649;28;20047;-59
2022/10/21 11:30:27;;;;;;;16.70;7.82;;;17.00;99.90;;;;;;4953505;28;20051;-59
2022/10/21 11:33:21;;;;;;;15.57;8.13;;;17.00;99.90;;;;;;4954922;28;20087;-59
2022/10/21 11:36:10;;;;;;;17.42;7.72;;;17.00;99.90;;;;;;4951742;28;20083;-59
2022/10/21 11:39:13;;;;;;;13.40;8.25;;;17.00;99.90;;;;;;4953866;28;20520;-60
2022/10/21 11:41:59;;;;;;;12.77;7.47;;;17.10;99.90;;;;;;4955858;28;20058;-60
2022/10/21 11:44:39;;;;;;;12.45;7.57;;;17.10;99.90;;;;;;4970725;28;20075;-59
2022/10/21 11:47:26;;;;;;;10.43;7.68;;;17.10;99.90;;;;;;4956480;28;20078;-59
2022/10/21 11:50:00;;;;;;;15.52;7.82;;;17.20;99.90;;;;;;4956880;28;20047;-59
2022/10/21 11:52:31;;;;;;;12.07;7.32;;;17.10;99.90;;;;;;4962127;28;20090;-59
2022/10/21 11:55:20;;;;;;;13.68;7.60;;;17.10;99.90;;;;;;4955242;28;20039;-59
2022/10/21 11:57:55;;;;;;;13.52;6.90;;;17.20;99.90;;;;;;4953790;28;20061;-59
2022/10/21 12:00:25;;;;;;;10.48;6.53;;;17.20;99.90;;;;;;4953202;28;20043;-60
2022/10/21 12:03:08;;;;;;;11.18;6.53;;;17.10;99.90;;;;;;4954633;28;20117;-60
2022/10/21 12:05:40;;;;;;;12.68;6.90;;;17.10;99.90;;;;;;4954817;28;20521;-59
2022/10/21 12:08:29;;;;;;;13.85;7.25;;;17.10;99.90;;;;;;4955005;28;20055;-59
2022/10/21 12:11:05;;;;;;;9.70;7.00;;;17.10;99.90;;;;;;4953131;28;20038;-60
2022/10/21 12:13:44;;;;;;;12.07;7.40;;;17.10;99.90;;;;;;4953842;28;20051;-60
2022/10/21 12:16:16;;;;;;;12.05;8.10;;;17.20;99.90;;;;;;4954988;28;20078;-60
2022/10/21 12:18:55;;;;;;;12.85;7.82;;;17.20;99.90;;;;;;4962032;28;20130;-59
2022/10/21 12:21:24;;;;;;;12.77;7.13;;;17.20;99.90;;;;;;4954397;28;20852;-59
2022/10/21 12:24:23;;;;;;;13.88;7.68;;;17.30;99.90;;;;;;4954093;28;20082;-60
2022/10/21 12:26:52;;;;;;;13.68;7.50;;;17.30;99.90;;;;;;4928348;28;20047;-60
2022/10/21 12:30:01;;;;;;;16.13;7.40;;;17.30;99.90;;;;;;4956372;28;20057;-58
2022/10/21 12:32:48;;;;;;;12.88;7.28;;;17.30;99.90;;;;;;4953792;28;20097;-58
2022/10/21 12:35:20;;;;;;;22.73;7.15;;;17.30;99.90;;;;;;4960616;28;20039;-60
2022/10/21 12:37:51;;;;;;;10.30;7.35;;;17.30;99.90;;;;;;4956386;28;20543;-59
2022/10/21 12:40:26;;;;;;;15.63;8.10;;;17.30;99.90;;;;;;4954295;28;20047;-59
2022/10/21 12:43:16;;;;;;;14.95;7.85;;;17.20;99.90;;;;;;4954283;28;20053;-59
2022/10/21 12:45:42;;;;;;;12.68;7.50;;;17.20;99.90;;;;;;4954103;28;20123;-59
2022/10/21 12:48:38;;;;;;;16.90;7.65;;;17.20;99.90;;;;;;4954527;28;20489;-59
2022/10/21 12:51:16;;;;;;;12.88;7.28;;;17.20;99.90;;;;;;4956984;28;20038;-60